createdAt,value
2018-05-16T00:26:23.888Z,14.60
2018-05-16T00:31:31.061Z,14.70
2018-05-16T00:36:33.797Z,14.70
2018-05-16T00:41:37.508Z,14.60
2018-05-16T00:46:41.180Z,14.60
2018-05-16T00:51:44.066Z,14.50
2018-05-16T00:56:47.877Z,14.60
2018-05-16T01:01:51.520Z,14.60
2018-05-16T01:06:54.250Z,14.60
2018-05-16T01:11:56.843Z,14.60
2018-05-16T01:16:59.725Z,14.70
2018-05-16T01:22:03.013Z,14.70
2018-05-16T01:27:06.204Z,14.60
2018-05-16T01:32:09.665Z,14.60
2018-05-16T01:37:12.351Z,14.60
2018-05-16T01:42:14.903Z,14.60
2018-05-16T01:47:17.905Z,14.60
2018-05-16T01:52:20.808Z,14.50
2018-05-16T01:57:27.454Z,14.50
2018-05-16T02:02:30.962Z,14.60
2018-05-16T02:07:33.621Z,14.50
2018-05-16T02:12:36.307Z,14.50
2018-05-16T02:17:39.697Z,14.50
2018-05-16T02:22:48.214Z,14.50
2018-05-16T02:27:52.268Z,14.50
2018-05-16T02:32:56.758Z,14.50
2018-05-16T02:38:00.220Z,14.50
2018-05-16T02:43:04.003Z,14.60
2018-05-16T02:48:06.664Z,14.30
2018-05-16T02:53:10.213Z,14.40
2018-05-16T02:58:12.833Z,14.50
2018-05-16T03:03:15.397Z,14.50
2018-05-16T03:08:17.961Z,14.40
2018-05-16T03:13:21.020Z,14.40
2018-05-16T03:18:24.364Z,14.40
2018-05-16T03:23:27.743Z,14.50
2018-05-16T03:28:30.313Z,14.50
2018-05-16T03:33:32.935Z,14.50
2018-05-16T03:38:35.960Z,14.40
2018-05-16T03:43:40.232Z,14.50
2018-05-16T03:48:42.773Z,14.40
2018-05-16T03:53:45.625Z,14.40
2018-05-16T03:59:00.024Z,14.30
2018-05-16T04:04:16.448Z,14.30
2018-05-16T04:09:19.375Z,14.40
2018-05-16T04:14:21.905Z,14.40
2018-05-16T04:19:24.823Z,14.20
2018-05-16T04:24:27.335Z,13.90
2018-05-16T04:29:30.665Z,13.90
2018-05-16T04:34:33.184Z,14.10
2018-05-16T04:39:35.691Z,14.10
2018-05-16T04:44:38.204Z,14.10
2018-05-16T04:49:40.722Z,14.10
2018-05-16T04:54:43.364Z,14.20
2018-05-16T04:59:46.860Z,14.30
2018-05-16T05:04:49.473Z,14.10
2018-05-16T05:09:51.940Z,14.10
2018-05-16T05:14:54.514Z,14.10
2018-05-16T05:19:57.049Z,14.20
2018-05-16T05:25:00.519Z,14.10
2018-05-16T05:30:03.062Z,14.10
2018-05-16T05:35:05.585Z,14.20
2018-05-16T05:40:08.208Z,14.10
2018-05-16T05:45:11.483Z,14.10
2018-05-16T05:50:14.746Z,14.20
2018-05-16T05:55:17.276Z,14.40
2018-05-16T06:00:20.537Z,14.50
2018-05-16T06:05:24.746Z,14.50
2018-05-16T06:10:27.619Z,14.40
2018-05-16T06:15:31.225Z,14.50
2018-05-16T06:20:33.765Z,14.50
2018-05-16T06:25:36.983Z,14.50
2018-05-16T06:30:40.220Z,14.60
2018-05-16T06:35:43.449Z,14.80
2018-05-16T06:40:46.071Z,15.30
2018-05-16T06:45:49.477Z,15.50
2018-05-16T06:50:52.681Z,15.50
2018-05-16T06:55:55.226Z,15.50
2018-05-16T07:00:57.746Z,15.50
2018-05-16T07:06:00.265Z,15.50
2018-05-16T07:11:02.955Z,15.70
2018-05-16T07:16:05.710Z,16.00
2018-05-16T07:21:08.246Z,16.50
2018-05-16T07:26:10.854Z,17.00
2018-05-16T07:31:13.400Z,17.20
2018-05-16T07:36:15.940Z,17.50
2018-05-16T07:41:18.496Z,17.40
2018-05-16T07:46:22.443Z,17.20
2018-05-16T07:51:24.964Z,17.30
2018-05-16T08:12:51.139Z,17.60
2018-05-16T08:23:22.077Z,17.10
2018-05-16T08:28:24.597Z,17.00
2018-05-16T08:33:27.090Z,17.20
2018-05-16T08:38:30.642Z,17.70
2018-05-16T08:43:33.237Z,18.30
2018-05-16T08:48:35.772Z,18.90
2018-05-16T08:53:38.308Z,19.30
2018-05-16T08:58:40.886Z,19.90
2018-05-16T09:03:43.412Z,19.90
2018-05-16T09:08:45.934Z,19.80
2018-05-16T09:13:48.545Z,19.70
2018-05-16T09:18:51.079Z,19.40
2018-05-16T09:23:53.781Z,19.20
2018-05-16T09:28:56.338Z,19.20
2018-05-16T09:33:58.944Z,19.40
2018-05-16T09:39:01.483Z,19.80
2018-05-16T09:44:04.031Z,19.80
2018-05-16T09:49:07.394Z,19.70
2018-05-16T09:54:09.955Z,19.80
2018-05-16T09:59:15.933Z,20.40
2018-05-16T10:04:18.846Z,21.70
2018-05-16T10:09:21.734Z,22.00
2018-05-16T10:14:24.707Z,21.80
2018-05-16T10:19:27.404Z,21.80
2018-05-16T10:24:30.955Z,21.40
2018-05-16T10:29:34.375Z,21.20
2018-05-16T10:34:37.103Z,20.90
2018-05-16T10:39:39.748Z,20.80
2018-05-16T10:44:43.146Z,20.40
2018-05-16T10:49:45.838Z,21.30
2018-05-16T10:54:48.506Z,22.30
2018-05-16T10:59:51.077Z,21.90
2018-05-16T11:04:53.769Z,21.60
2018-05-16T11:09:56.368Z,21.90
2018-05-16T11:14:59.024Z,22.50
2018-05-16T11:20:01.689Z,23.10
2018-05-16T11:25:04.324Z,23.00
2018-05-16T11:30:06.999Z,23.20
2018-05-16T11:35:09.705Z,23.20
2018-05-16T11:40:12.409Z,23.40
2018-05-16T11:45:15.013Z,23.80
2018-05-16T11:50:24.288Z,24.10
2018-05-16T11:55:26.981Z,24.90
2018-05-16T12:00:29.629Z,23.70
2018-05-16T12:05:32.198Z,23.30
2018-05-16T12:10:34.763Z,24.30
2018-05-16T12:15:38.539Z,24.90
2018-05-16T12:20:42.399Z,25.10
2018-05-16T12:25:46.564Z,25.40
2018-05-16T12:30:49.611Z,25.50
2018-05-16T12:35:53.949Z,25.70
2018-05-16T12:40:58.281Z,25.50
2018-05-16T12:46:00.869Z,25.70
2018-05-16T12:51:03.525Z,26.00
2018-05-16T12:56:07.104Z,26.40
2018-05-16T13:01:10.104Z,26.30
2018-05-16T13:06:15.629Z,26.30
2018-05-16T14:08:30.584Z,25.70
2018-05-16T14:19:11.070Z,24.40
2018-05-16T14:24:27.107Z,24.30
2018-05-16T14:46:24.764Z,23.70
2018-05-16T14:51:28.851Z,23.10
2018-05-16T15:02:10.581Z,21.60
2018-05-16T15:29:35.259Z,20.20
2018-05-16T15:34:38.033Z,20.70
2018-05-16T15:39:44.050Z,21.10
2018-05-16T15:44:48.441Z,21.50
2018-05-16T15:49:51.189Z,22.10
2018-05-16T15:54:54.078Z,22.30
2018-05-16T16:00:00.055Z,22.00
2018-05-16T16:05:02.700Z,22.20
2018-05-16T16:10:06.224Z,22.10
2018-05-16T16:15:09.028Z,22.10
2018-05-16T16:20:11.688Z,21.90
2018-05-16T16:25:14.993Z,21.80
2018-05-16T16:30:18.329Z,22.00
2018-05-16T16:35:21.815Z,22.20
2018-05-16T16:40:24.884Z,22.50
2018-05-16T16:45:29.091Z,23.60
2018-05-16T16:50:33.708Z,23.50
2018-05-16T16:55:41.479Z,23.00
2018-05-16T17:00:44.165Z,22.80
2018-05-16T17:05:46.913Z,22.30
2018-05-16T17:10:49.742Z,21.90
2018-05-16T17:15:52.403Z,21.60
2018-05-16T17:20:55.138Z,21.40
2018-05-16T17:25:58.405Z,21.30
2018-05-16T17:31:01.119Z,21.30
2018-05-16T17:36:04.180Z,21.20
2018-05-16T17:41:06.852Z,21.00
2018-05-16T17:46:09.791Z,20.80
2018-05-16T17:51:23.114Z,20.70
2018-05-16T17:56:25.819Z,20.50
2018-05-16T18:01:28.530Z,20.30
2018-05-16T18:06:32.046Z,20.10
2018-05-16T18:11:35.557Z,19.80
2018-05-16T18:16:53.147Z,19.70
2018-05-16T18:21:57.648Z,19.40
2018-05-16T18:27:01.245Z,19.30
2018-05-16T18:32:04.155Z,19.20
2018-05-16T18:42:47.369Z,18.70
2018-05-16T18:47:50.559Z,18.40
2018-05-16T18:52:53.504Z,18.10
2018-05-16T18:57:56.902Z,17.60
2018-05-16T19:03:00.360Z,17.60
2018-05-16T19:08:03.119Z,17.50
2018-05-16T19:13:06.616Z,17.30
2018-05-16T19:18:09.267Z,17.20
2018-05-16T19:23:12.069Z,17.10
2018-05-16T19:28:14.841Z,17.00
2018-05-16T19:33:18.229Z,16.60
2018-05-16T19:38:20.902Z,16.50
2018-05-16T19:43:23.490Z,16.40
2018-05-16T19:48:26.059Z,16.30
2018-05-16T19:53:28.633Z,16.30
2018-05-16T19:58:31.287Z,16.10
2018-05-16T20:03:33.822Z,16.20
2018-05-16T20:08:37.769Z,16.00
2018-05-16T20:13:41.067Z,16.00
2018-05-16T20:18:44.600Z,16.00
2018-05-16T20:23:47.328Z,15.90
2018-05-16T20:28:50.833Z,15.80
2018-05-16T20:33:53.542Z,15.70
2018-05-16T20:38:56.191Z,15.60
2018-05-16T20:44:00.815Z,15.70
2018-05-16T20:49:04.285Z,15.70
2018-05-16T20:54:07.080Z,15.70
2018-05-16T20:59:11.464Z,15.70
2018-05-16T21:04:14.155Z,15.70
2018-05-16T21:09:16.823Z,15.80
2018-05-16T21:14:19.453Z,15.80
2018-05-16T21:19:23.807Z,16.00
2018-05-16T21:24:26.521Z,15.90
2018-05-16T21:29:29.188Z,15.90
2018-05-16T21:34:32.680Z,16.00
2018-05-16T21:39:35.343Z,15.90
2018-05-16T21:44:38.073Z,16.00
2018-05-16T21:49:41.341Z,16.10
2018-05-16T21:54:44.074Z,16.20
2018-05-16T21:59:46.786Z,16.10
2018-05-16T22:04:53.087Z,16.30
2018-05-16T22:09:56.531Z,16.50
2018-05-16T22:14:59.190Z,16.40
2018-05-16T22:20:01.861Z,16.40
2018-05-16T22:25:04.520Z,16.30
2018-05-16T22:30:06.874Z,16.20
2018-05-16T22:35:16.379Z,16.00
2018-05-16T22:40:30.289Z,15.80
2018-05-16T22:45:36.256Z,15.50
2018-05-16T23:07:35.001Z,15.60
2018-05-16T23:12:38.615Z,15.50
2018-05-16T23:17:41.259Z,15.30
2018-05-16T23:22:45.751Z,15.50
2018-05-16T23:27:48.327Z,15.40
2018-05-16T23:32:52.090Z,15.20
2018-05-16T23:37:55.328Z,15.10
2018-05-16T23:42:59.510Z,15.10
2018-05-16T23:48:02.073Z,15.10
2018-05-16T23:53:04.598Z,15.20
2018-05-16T23:58:07.170Z,15.30
